Time;durP1;ratioP1;P1;durP2;ratioP2;P2;SDS_P1;SDS_P2;PMS_P1;PMS_P2;Temp;Humidity;BMP_temperature;BMP_pressure;BME280_temperature;BME280_humidity;BME280_pressure;Samples;Min_cycle;Max_cycle;Signal;HPM_P1;HPM_P2
2021/05/28 00:02:24;;;;;;;8.33;5.90;;;;;;;;;;3587676;39;20406;-77
2021/05/28 00:04:50;;;;;;;9.27;6.33;;;;;;;;;;3580628;39;20430;-77
2021/05/28 00:07:16;;;;;;;7.57;6.70;;;;;;;;;;3588971;39;20662;-77
2021/05/28 00:09:42;;;;;;;9.83;6.47;;;;;;;;;;3598179;39;20395;-76
2021/05/28 00:12:08;;;;;;;7.30;6.20;;;;;;;;;;3587555;39;20852;-77
2021/05/28 00:14:34;;;;;;;13.73;7.50;;;;;;;;;;3587641;39;21117;-77
2021/05/28 00:17:00;;;;;;;14.27;6.50;;;;;;;;;;3588533;39;20792;-76
2021/05/28 00:19:27;;;;;;;14.80;6.30;;;;;;;;;;3586974;39;20468;-77
2021/05/28 00:21:53;;;;;;;12.73;7.30;;;;;;;;;;3587150;39;20400;-76
2021/05/28 00:24:20;;;;;;;8.80;6.13;;;;;;;;;;3587612;39;20449;-76
2021/05/28 00:26:46;;;;;;;14.50;7.40;;;;;;;;;;3576309;39;20396;-76
2021/05/28 00:29:12;;;;;;;10.77;5.27;;;;;;;;;;3586991;39;20407;-76
2021/05/28 00:31:38;;;;;;;15.60;6.23;;;;;;;;;;3585409;39;20398;-77
2021/05/28 00:34:04;;;;;;;10.67;7.23;;;;;;;;;;3579407;39;20565;-76
2021/05/28 00:36:30;;;;;;;8.13;6.33;;;;;;;;;;3580278;39;20411;-76
2021/05/28 00:38:56;;;;;;;8.20;6.10;;;;;;;;;;3597154;39;20822;-77
2021/05/28 00:41:22;;;;;;;7.67;5.90;;;;;;;;;;3587837;39;20457;-77
2021/05/28 00:43:48;;;;;;;7.87;6.10;;;;;;;;;;3586663;39;20428;-76
2021/05/28 00:46:15;;;;;;;8.20;5.70;;;;;;;;;;3597465;39;20386;-76
2021/05/28 00:48:41;;;;;;;12.63;6.50;;;;;;;;;;3580786;39;20966;-76
2021/05/28 00:51:07;;;;;;;12.83;7.73;;;;;;;;;;3591278;39;20493;-76
2021/05/28 00:53:33;;;;;;;8.03;6.10;;;;;;;;;;3586018;39;20423;-76
2021/05/28 00:56:00;;;;;;;11.37;6.20;;;;;;;;;;3586387;39;20403;-76
2021/05/28 00:58:27;;;;;;;20.93;6.30;;;;;;;;;;3578757;39;20458;-77
2021/05/28 01:00:53;;;;;;;8.10;5.53;;;;;;;;;;3597332;39;20427;-77
2021/05/28 01:05:53;;;;;;;9.80;6.50;;;;;;;;;;3629066;39;20433;-81
2021/05/28 01:08:19;;;;;;;13.67;6.90;;;;;;;;;;3632124;39;21312;-81
2021/05/28 01:10:45;;;;;;;13.20;6.77;;;;;;;;;;3623454;39;20413;-81
2021/05/28 01:13:12;;;;;;;7.33;6.57;;;;;;;;;;3620440;39;20420;-81
2021/05/28 01:15:39;;;;;;;13.27;6.50;;;;;;;;;;3612067;39;20394;-81
2021/05/28 01:18:05;;;;;;;7.80;6.73;;;;;;;;;;3621727;39;20440;-81
2021/05/28 01:20:31;;;;;;;10.87;5.80;;;;;;;;;;3613416;39;20397;-81
2021/05/28 01:23:00;;;;;;;10.47;8.27;;;;;;;;;;3629125;39;20444;-81
2021/05/28 01:25:26;;;;;;;9.87;6.80;;;;;;;;;;3621527;39;20378;-81
2021/05/28 01:27:53;;;;;;;15.10;7.50;;;;;;;;;;3620040;39;20475;-81
2021/05/28 01:30:20;;;;;;;7.70;6.80;;;;;;;;;;3613944;39;20410;-81
2021/05/28 01:32:46;;;;;;;12.20;8.00;;;;;;;;;;3620115;39;20421;-81
2021/05/28 01:35:13;;;;;;;14.10;8.07;;;;;;;;;;3620415;39;20413;-81
2021/05/28 01:37:40;;;;;;;14.73;7.80;;;;;;;;;;3625045;39;20415;-81
2021/05/28 01:40:08;;;;;;;9.67;7.83;;;;;;;;;;3623430;39;21001;-81
2021/05/28 01:42:34;;;;;;;18.30;8.00;;;;;;;;;;3620800;39;20422;-81
2021/05/28 01:45:02;;;;;;;8.90;7.30;;;;;;;;;;3615451;39;21060;-81
2021/05/28 01:47:28;;;;;;;17.50;8.73;;;;;;;;;;3623735;39;20463;-81
2021/05/28 01:49:54;;;;;;;22.20;7.43;;;;;;;;;;3613343;39;20768;-81
2021/05/28 01:52:22;;;;;;;15.63;7.80;;;;;;;;;;3620213;39;21194;-81
2021/05/28 01:54:48;;;;;;;11.00;6.87;;;;;;;;;;3619589;39;20484;-81
2021/05/28 01:57:15;;;;;;;10.23;7.00;;;;;;;;;;3619300;39;20424;-81
2021/05/28 01:59:42;;;;;;;13.47;7.23;;;;;;;;;;3631326;39;20393;-81
2021/05/28 02:02:08;;;;;;;17.47;8.03;;;;;;;;;;3616120;39;20413;-81
2021/05/28 02:04:34;;;;;;;16.70;7.20;;;;;;;;;;3620986;39;20412;-81
2021/05/28 02:07:01;;;;;;;11.60;7.33;;;;;;;;;;3621724;39;20444;-81
2021/05/28 02:09:27;;;;;;;9.73;6.53;;;;;;;;;;3630002;39;20477;-81
2021/05/28 02:11:56;;;;;;;10.13;6.53;;;;;;;;;;3613707;39;20470;-81
2021/05/28 02:14:24;;;;;;;13.90;7.37;;;;;;;;;;3623610;39;20416;-80
2021/05/28 02:16:50;;;;;;;10.40;8.70;;;;;;;;;;3621628;39;21163;-81
2021/05/28 02:19:20;;;;;;;15.87;7.67;;;;;;;;;;3620576;39;20421;-81
2021/05/28 02:21:46;;;;;;;9.53;7.80;;;;;;;;;;3610649;39;20843;-80
2021/05/28 02:24:14;;;;;;;8.53;7.23;;;;;;;;;;3610021;39;20417;-80
2021/05/28 02:26:40;;;;;;;8.33;6.93;;;;;;;;;;3607737;39;20441;-79
2021/05/28 02:29:07;;;;;;;14.03;7.10;;;;;;;;;;3618415;39;20753;-79
2021/05/28 02:31:34;;;;;;;9.23;7.10;;;;;;;;;;3611538;39;20838;-81
2021/05/28 02:34:00;;;;;;;11.97;8.27;;;;;;;;;;3611838;39;20404;-81
2021/05/28 02:36:28;;;;;;;11.07;7.80;;;;;;;;;;3618152;39;20781;-82
2021/05/28 02:38:54;;;;;;;9.13;6.83;;;;;;;;;;3613652;39;20392;-81
2021/05/28 02:41:20;;;;;;;8.57;7.00;;;;;;;;;;3618617;39;20418;-82
2021/05/28 02:43:46;;;;;;;14.30;8.47;;;;;;;;;;3623310;39;20382;-81
2021/05/28 02:46:14;;;;;;;8.40;7.60;;;;;;;;;;3605945;39;21191;-81
2021/05/28 02:48:40;;;;;;;12.33;7.70;;;;;;;;;;3617976;39;20405;-82
2021/05/28 02:51:07;;;;;;;9.93;9.00;;;;;;;;;;3611630;39;20513;-82
2021/05/28 02:53:36;;;;;;;11.40;8.57;;;;;;;;;;3611164;39;20405;-82
2021/05/28 02:56:03;;;;;;;14.67;9.63;;;;;;;;;;3619358;39;21376;-82
2021/05/28 02:58:30;;;;;;;13.37;10.17;;;;;;;;;;3611753;39;20489;-82
2021/05/28 03:00:56;;;;;;;19.47;9.77;;;;;;;;;;3611517;39;20406;-82
2021/05/28 03:03:22;;;;;;;14.33;11.73;;;;;;;;;;3612716;39;21012;-82
2021/05/28 03:05:50;;;;;;;11.17;8.10;;;;;;;;;;3619709;39;20502;-82
2021/05/28 03:08:16;;;;;;;18.53;8.63;;;;;;;;;;3605103;39;21136;-82
2021/05/28 03:10:42;;;;;;;15.13;8.60;;;;;;;;;;3605571;39;20434;-82
2021/05/28 03:13:09;;;;;;;18.00;8.83;;;;;;;;;;3619533;39;20452;-82
2021/05/28 03:15:35;;;;;;;10.40;8.27;;;;;;;;;;3620548;39;21350;-82
2021/05/28 03:18:01;;;;;;;9.20;7.47;;;;;;;;;;3612188;39;20421;-82
2021/05/28 03:20:34;;;;;;;16.67;8.77;;;;;;;;;;3614770;39;20376;-82
2021/05/28 03:23:00;;;;;;;11.37;7.00;;;;;;;;;;3623735;39;20433;-81
2021/05/28 03:25:26;;;;;;;9.60;7.37;;;;;;;;;;3613122;39;20819;-81
2021/05/28 03:27:53;;;;;;;8.70;7.20;;;;;;;;;;3620084;39;20854;-82
2021/05/28 03:30:20;;;;;;;8.23;6.87;;;;;;;;;;3612148;39;20425;-81
2021/05/28 03:32:46;;;;;;;12.93;7.80;;;;;;;;;;3620465;39;20385;-82
2021/05/28 03:35:13;;;;;;;10.50;8.73;;;;;;;;;;3630263;39;20408;-82
2021/05/28 03:37:40;;;;;;;10.10;7.90;;;;;;;;;;3613281;39;20434;-82
2021/05/28 03:40:06;;;;;;;10.33;7.13;;;;;;;;;;3610852;39;20950;-81
2021/05/28 03:42:33;;;;;;;8.53;6.97;;;;;;;;;;3632682;39;20389;-81
2021/05/28 03:45:01;;;;;;;7.10;6.40;;;;;;;;;;3619008;39;20412;-81
2021/05/28 03:47:27;;;;;;;10.57;7.47;;;;;;;;;;3629854;39;20511;-81
2021/05/28 03:49:53;;;;;;;8.43;7.63;;;;;;;;;;3617403;39;20428;-81
2021/05/28 03:52:19;;;;;;;8.73;7.27;;;;;;;;;;3611486;39;20821;-81
2021/05/28 03:54:47;;;;;;;15.87;7.90;;;;;;;;;;3610605;39;20468;-83
2021/05/28 03:57:13;;;;;;;13.07;6.77;;;;;;;;;;3624120;39;20442;-81
2021/05/28 03:59:39;;;;;;;11.60;8.37;;;;;;;;;;3611532;39;20932;-81
2021/05/28 04:02:06;;;;;;;8.90;8.00;;;;;;;;;;3611068;39;20451;-81
2021/05/28 04:04:33;;;;;;;11.40;9.00;;;;;;;;;;3613302;39;20441;-81
2021/05/28 04:06:59;;;;;;;9.40;8.50;;;;;;;;;;3622039;39;20416;-81
2021/05/28 04:09:25;;;;;;;10.80;8.27;;;;;;;;;;3631728;39;20401;-81
2021/05/28 04:11:52;;;;;;;12.40;8.23;;;;;;;;;;3621754;39;20443;-81
2021/05/28 04:14:18;;;;;;;16.37;10.43;;;;;;;;;;3621023;39;20421;-82
2021/05/28 04:16:44;;;;;;;11.63;8.40;;;;;;;;;;3621726;39;20411;-83
2021/05/28 04:19:10;;;;;;;11.50;9.03;;;;;;;;;;3614821;39;20413;-82
2021/05/28 04:21:36;;;;;;;11.17;9.80;;;;;;;;;;3609317;39;20500;-82
2021/05/28 04:24:03;;;;;;;11.47;8.60;;;;;;;;;;3619338;39;20405;-82
2021/05/28 04:26:29;;;;;;;9.70;8.20;;;;;;;;;;3621738;39;20424;-82
2021/05/28 04:28:55;;;;;;;11.93;9.77;;;;;;;;;;3619221;39;20489;-82
2021/05/28 04:31:22;;;;;;;15.10;8.50;;;;;;;;;;3606681;39;21073;-82
2021/05/28 04:33:48;;;;;;;12.67;9.33;;;;;;;;;;3611674;39;20409;-82
2021/05/28 04:36:14;;;;;;;16.07;12.07;;;;;;;;;;3622736;39;20412;-82
2021/05/28 04:38:40;;;;;;;11.63;8.43;;;;;;;;;;3620390;39;20763;-82
2021/05/28 04:41:06;;;;;;;16.73;10.40;;;;;;;;;;3622663;39;20422;-82
2021/05/28 04:43:33;;;;;;;13.50;11.70;;;;;;;;;;3619366;39;21281;-82
2021/05/28 04:45:59;;;;;;;15.67;13.17;;;;;;;;;;3622728;39;20393;-82
2021/05/28 04:48:25;;;;;;;23.43;13.23;;;;;;;;;;3610560;39;20493;-82
2021/05/28 04:50:51;;;;;;;28.90;13.87;;;;;;;;;;3610664;39;20397;-82
2021/05/28 04:53:17;;;;;;;21.70;14.70;;;;;;;;;;3612928;39;20410;-82
2021/05/28 04:55:43;;;;;;;34.80;17.10;;;;;;;;;;3630657;39;20413;-82
2021/05/28 04:58:10;;;;;;;23.77;17.27;;;;;;;;;;3629236;39;20796;-82
2021/05/28 05:00:36;;;;;;;79.10;21.20;;;;;;;;;;3612031;39;20389;-82
2021/05/28 05:03:03;;;;;;;64.17;17.60;;;;;;;;;;3605178;39;21083;-83
2021/05/28 05:05:29;;;;;;;75.07;20.40;;;;;;;;;;3629225;39;20441;-83
2021/05/28 05:07:55;;;;;;;57.40;18.97;;;;;;;;;;3620115;39;20730;-83
2021/05/28 05:10:22;;;;;;;243.60;34.97;;;;;;;;;;3600993;39;20400;-83
2021/05/28 05:12:48;;;;;;;195.37;29.53;;;;;;;;;;3612945;39;20401;-83
2021/05/28 05:15:14;;;;;;;108.93;24.40;;;;;;;;;;3620600;39;20766;-83
2021/05/28 05:17:40;;;;;;;100.80;24.30;;;;;;;;;;3628750;39;20418;-83
2021/05/28 05:20:07;;;;;;;181.77;29.30;;;;;;;;;;3619592;39;20447;-83
2021/05/28 05:22:33;;;;;;;208.80;30.60;;;;;;;;;;3619729;39;20579;-83
2021/05/28 05:24:59;;;;;;;201.77;33.03;;;;;;;;;;3620905;39;20892;-83
2021/05/28 05:27:25;;;;;;;149.50;29.73;;;;;;;;;;3631000;39;20449;-83
2021/05/28 05:29:51;;;;;;;150.10;30.60;;;;;;;;;;3611646;39;20771;-83
2021/05/28 05:32:17;;;;;;;139.97;25.97;;;;;;;;;;3623802;39;20424;-83
2021/05/28 05:34:45;;;;;;;132.10;30.80;;;;;;;;;;3612753;39;20398;-83
2021/05/28 05:37:12;;;;;;;158.90;30.40;;;;;;;;;;3610386;39;20401;-83
2021/05/28 05:39:39;;;;;;;137.33;28.10;;;;;;;;;;3610332;39;20401;-83
2021/05/28 05:42:05;;;;;;;78.97;27.10;;;;;;;;;;3605815;39;20464;-83
2021/05/28 05:44:31;;;;;;;81.97;26.97;;;;;;;;;;3619804;39;20394;-83
2021/05/28 05:46:58;;;;;;;119.00;27.20;;;;;;;;;;3619701;39;20401;-83
2021/05/28 05:49:24;;;;;;;98.57;28.00;;;;;;;;;;3605105;39;20929;-83
2021/05/28 05:51:50;;;;;;;112.37;28.60;;;;;;;;;;3609785;39;20416;-83
2021/05/28 05:54:17;;;;;;;65.67;26.27;;;;;;;;;;3619878;39;20392;-83
2021/05/28 05:56:45;;;;;;;82.37;28.10;;;;;;;;;;3619150;39;20407;-83
2021/05/28 05:59:11;;;;;;;84.73;28.30;;;;;;;;;;3603756;39;20412;-83
2021/05/28 06:01:37;;;;;;;90.63;27.70;;;;;;;;;;3617239;39;20788;-83
2021/05/28 06:04:03;;;;;;;60.03;24.63;;;;;;;;;;3626828;39;21221;-83
2021/05/28 06:06:29;;;;;;;73.70;27.93;;;;;;;;;;3622946;39;20409;-83
2021/05/28 06:08:55;;;;;;;100.17;28.47;;;;;;;;;;3612014;39;20463;-83
2021/05/28 06:11:21;;;;;;;85.13;29.93;;;;;;;;;;3609624;39;20410;-83
2021/05/28 06:13:48;;;;;;;70.73;27.77;;;;;;;;;;3617916;39;20485;-83
2021/05/28 06:16:14;;;;;;;85.30;31.47;;;;;;;;;;3603599;39;20421;-83
2021/05/28 06:18:40;;;;;;;57.67;27.60;;;;;;;;;;3607933;39;20797;-81
2021/05/28 06:21:06;;;;;;;55.37;26.50;;;;;;;;;;3603114;39;20548;-82
2021/05/28 06:23:33;;;;;;;61.40;29.63;;;;;;;;;;3600733;39;21152;-81
2021/05/28 06:26:00;;;;;;;60.63;27.77;;;;;;;;;;3604734;39;20410;-81
2021/05/28 06:28:26;;;;;;;68.93;29.60;;;;;;;;;;3616746;39;20405;-82
2021/05/28 06:30:54;;;;;;;54.47;27.43;;;;;;;;;;3614140;39;21207;-82
2021/05/28 06:33:21;;;;;;;74.87;31.63;;;;;;;;;;3616987;39;20490;-82
2021/05/28 06:35:47;;;;;;;61.50;28.27;;;;;;;;;;3618128;39;20442;-81
2021/05/28 06:38:13;;;;;;;57.30;29.23;;;;;;;;;;3620247;39;20412;-82
2021/05/28 06:40:39;;;;;;;59.40;29.30;;;;;;;;;;3621378;39;20413;-82
2021/05/28 06:43:06;;;;;;;62.63;30.87;;;;;;;;;;3610415;39;20690;-82
2021/05/28 06:45:35;;;;;;;58.93;31.60;;;;;;;;;;3611007;39;20418;-82
2021/05/28 06:48:01;;;;;;;60.63;30.33;;;;;;;;;;3614340;39;20381;-82
2021/05/28 06:50:31;;;;;;;63.37;31.10;;;;;;;;;;3602332;39;20413;-82
2021/05/28 06:52:57;;;;;;;53.43;29.43;;;;;;;;;;3605526;39;20430;-82
2021/05/28 06:55:23;;;;;;;63.07;29.90;;;;;;;;;;3612428;39;20409;-82
2021/05/28 06:57:49;;;;;;;50.00;28.27;;;;;;;;;;3610052;39;20386;-82
2021/05/28 07:00:15;;;;;;;56.80;31.50;;;;;;;;;;3599976;39;20849;-82
2021/05/28 07:02:41;;;;;;;64.23;33.80;;;;;;;;;;3603095;39;20375;-82
2021/05/28 07:05:07;;;;;;;60.13;31.60;;;;;;;;;;3610415;39;20429;-82
2021/05/28 07:07:33;;;;;;;68.07;31.10;;;;;;;;;;3608934;39;20406;-83
2021/05/28 07:10:00;;;;;;;64.07;33.10;;;;;;;;;;3620906;39;21353;-82
2021/05/28 07:12:26;;;;;;;59.40;32.03;;;;;;;;;;3620079;39;20410;-82
2021/05/28 07:14:54;;;;;;;64.70;27.93;;;;;;;;;;3614189;39;20445;-82
2021/05/28 07:17:21;;;;;;;66.27;29.90;;;;;;;;;;3605456;39;20385;-82
2021/05/28 07:19:47;;;;;;;58.80;31.60;;;;;;;;;;3616319;39;20401;-82
2021/05/28 07:22:13;;;;;;;64.57;33.67;;;;;;;;;;3601272;39;20440;-82
2021/05/28 07:24:39;;;;;;;74.10;36.00;;;;;;;;;;3610090;39;20405;-82
2021/05/28 07:27:05;;;;;;;65.90;34.43;;;;;;;;;;3609473;39;20398;-82
2021/05/28 07:29:31;;;;;;;74.50;35.43;;;;;;;;;;3618410;39;20510;-81
2021/05/28 07:31:58;;;;;;;81.30;36.30;;;;;;;;;;3607833;39;21138;-82
2021/05/28 07:34:24;;;;;;;76.17;35.87;;;;;;;;;;3609899;39;20429;-82
2021/05/28 07:36:51;;;;;;;79.80;37.93;;;;;;;;;;3610386;39;20801;-82
2021/05/28 07:39:20;;;;;;;78.23;36.37;;;;;;;;;;3619899;39;20403;-83
2021/05/28 07:41:46;;;;;;;93.20;41.20;;;;;;;;;;3613463;39;20380;-82
2021/05/28 07:44:13;;;;;;;79.57;39.47;;;;;;;;;;3602998;39;21783;-82
2021/05/28 07:46:45;;;;;;;87.60;40.90;;;;;;;;;;3614351;39;20444;-81
2021/05/28 07:49:15;;;;;;;73.97;37.50;;;;;;;;;;3617929;39;21305;-82
2021/05/28 07:51:47;;;;;;;83.13;41.80;;;;;;;;;;3618788;39;20380;-82
2021/05/28 07:54:13;;;;;;;101.00;43.47;;;;;;;;;;3618608;39;20413;-81
2021/05/28 07:56:40;;;;;;;89.83;40.90;;;;;;;;;;3611929;39;20360;-82
2021/05/28 07:59:06;;;;;;;69.27;37.83;;;;;;;;;;3620204;39;20376;-82
2021/05/28 08:01:32;;;;;;;74.20;39.70;;;;;;;;;;3613735;39;20428;-83
2021/05/28 08:03:59;;;;;;;75.63;43.40;;;;;;;;;;3618859;39;22390;-81
2021/05/28 08:06:25;;;;;;;85.57;43.37;;;;;;;;;;3619542;39;20421;-82
2021/05/28 08:09:18;;;;;;;73.00;42.07;;;;;;;;;;3616034;39;20449;-82
2021/05/28 08:11:45;;;;;;;75.70;39.00;;;;;;;;;;3619497;39;20416;-82
2021/05/28 08:14:11;;;;;;;75.67;36.10;;;;;;;;;;3610899;39;21208;-82
2021/05/28 08:16:37;;;;;;;68.43;37.77;;;;;;;;;;3611381;39;20468;-82
2021/05/28 08:19:04;;;;;;;76.57;40.60;;;;;;;;;;3607404;39;21326;-82
2021/05/28 08:21:30;;;;;;;55.70;33.47;;;;;;;;;;3610826;39;20468;-82
2021/05/28 08:23:56;;;;;;;55.87;34.93;;;;;;;;;;3609893;39;20410;-83
2021/05/28 08:26:22;;;;;;;61.87;35.37;;;;;;;;;;3615699;39;20394;-83
2021/05/28 08:28:48;;;;;;;47.77;31.37;;;;;;;;;;3619136;39;20418;-83
2021/05/28 08:31:15;;;;;;;54.27;35.20;;;;;;;;;;3617768;39;20414;-82
2021/05/28 08:33:44;;;;;;;52.53;33.40;;;;;;;;;;3609898;39;20421;-83
2021/05/28 08:36:10;;;;;;;58.67;34.90;;;;;;;;;;3601878;39;21157;-82
2021/05/28 08:38:38;;;;;;;47.47;32.20;;;;;;;;;;3609014;39;20429;-83
2021/05/28 08:41:04;;;;;;;49.57;30.60;;;;;;;;;;3627660;39;20861;-83
2021/05/28 08:43:31;;;;;;;54.63;29.67;;;;;;;;;;3602212;39;20450;-83
2021/05/28 08:46:01;;;;;;;47.30;30.90;;;;;;;;;;3620579;39;20428;-83
2021/05/28 08:48:27;;;;;;;49.23;27.40;;;;;;;;;;3617540;39;20509;-83
2021/05/28 08:50:54;;;;;;;44.37;27.20;;;;;;;;;;3612709;39;20471;-83
2021/05/28 08:53:21;;;;;;;40.60;27.40;;;;;;;;;;3628950;39;20437;-83
2021/05/28 08:55:47;;;;;;;43.30;27.33;;;;;;;;;;3616253;39;20445;-83
2021/05/28 08:58:14;;;;;;;51.73;29.20;;;;;;;;;;3612399;39;20410;-83
2021/05/28 09:00:42;;;;;;;36.83;25.90;;;;;;;;;;3618978;39;20401;-83
2021/05/28 09:03:23;;;;;;;36.50;26.53;;;;;;;;;;3629935;39;20416;-83
2021/05/28 09:05:50;;;;;;;40.23;24.23;;;;;;;;;;3627008;39;20410;-83
2021/05/28 09:08:32;;;;;;;41.57;26.23;;;;;;;;;;3618084;39;20507;-83
2021/05/28 09:11:17;;;;;;;39.33;28.10;;;;;;;;;;3612317;39;20541;-83
2021/05/28 09:13:43;;;;;;;38.17;24.30;;;;;;;;;;3617842;39;20499;-83
2021/05/28 09:16:11;;;;;;;40.40;25.60;;;;;;;;;;3618658;39;20407;-83
2021/05/28 09:18:45;;;;;;;30.67;22.50;;;;;;;;;;3619527;39;20414;-83
2021/05/28 09:21:13;;;;;;;28.57;20.50;;;;;;;;;;3627698;39;20712;-83
2021/05/28 09:23:39;;;;;;;30.70;22.70;;;;;;;;;;3608892;39;20421;-83
2021/05/28 09:26:09;;;;;;;30.67;21.73;;;;;;;;;;3613053;39;20410;-83
2021/05/28 09:28:46;;;;;;;29.93;21.87;;;;;;;;;;3619649;39;20942;-83
2021/05/28 09:31:16;;;;;;;33.43;22.80;;;;;;;;;;3621279;39;20521;-83
2021/05/28 09:33:44;;;;;;;31.13;23.50;;;;;;;;;;3619440;39;20429;-83
2021/05/28 09:36:31;;;;;;;29.83;22.17;;;;;;;;;;3619763;39;20413;-83
2021/05/28 09:39:06;;;;;;;24.33;20.20;;;;;;;;;;3619959;39;21203;-83
2021/05/28 09:41:53;;;;;;;24.87;20.30;;;;;;;;;;3624232;39;20419;-83
2021/05/28 09:50:34;;;;;;;27.80;20.93;;;;;;;;;;3617933;39;20854;-83
2021/05/28 09:53:01;;;;;;;33.13;24.23;;;;;;;;;;3619690;39;20776;-83
2021/05/28 09:55:32;;;;;;;30.20;19.30;;;;;;;;;;3629339;39;20409;-83
2021/05/28 09:57:58;;;;;;;28.97;20.43;;;;;;;;;;3620310;39;20422;-83
2021/05/28 10:00:32;;;;;;;26.43;17.67;;;;;;;;;;3621283;39;20421;-83
2021/05/28 10:03:14;;;;;;;29.27;19.33;;;;;;;;;;3611601;39;20549;-84
2021/05/28 10:05:44;;;;;;;25.50;19.13;;;;;;;;;;3632343;39;20425;-83
2021/05/28 10:08:12;;;;;;;18.87;15.60;;;;;;;;;;3622904;39;20441;-83
2021/05/28 10:10:40;;;;;;;21.27;15.30;;;;;;;;;;3612262;39;20418;-83
2021/05/28 10:13:10;;;;;;;21.37;16.20;;;;;;;;;;3622277;39;20402;-83
2021/05/28 10:15:36;;;;;;;25.83;18.37;;;;;;;;;;3612253;39;20417;-83
2021/05/28 10:18:03;;;;;;;21.87;16.53;;;;;;;;;;3607756;39;20495;-83
2021/05/28 10:20:30;;;;;;;20.50;17.30;;;;;;;;;;3606502;39;20428;-83
2021/05/28 10:22:56;;;;;;;19.40;16.03;;;;;;;;;;3620057;39;20438;-83
2021/05/28 10:25:24;;;;;;;22.33;17.07;;;;;;;;;;3613137;39;20398;-83
2021/05/28 10:28:00;;;;;;;16.93;14.97;;;;;;;;;;3623330;39;20425;-83
2021/05/28 10:30:27;;;;;;;16.77;13.23;;;;;;;;;;3629527;39;20393;-83
2021/05/28 10:33:12;;;;;;;13.80;11.10;;;;;;;;;;3623860;39;20414;-83
2021/05/28 10:35:41;;;;;;;15.70;11.03;;;;;;;;;;3619121;39;20929;-83
2021/05/28 10:38:26;;;;;;;14.70;11.10;;;;;;;;;;3622825;39;20413;-84
2021/05/28 10:41:18;;;;;;;18.17;13.27;;;;;;;;;;3623156;39;20409;-84
2021/05/28 10:43:50;;;;;;;19.53;14.63;;;;;;;;;;3575797;40;20416;-84
2021/05/28 10:46:17;;;;;;;20.03;14.10;;;;;;;;;;3575308;40;20429;-84
2021/05/28 10:48:47;;;;;;;21.77;14.80;;;;;;;;;;3575329;40;20474;-84
2021/05/28 10:51:14;;;;;;;26.27;17.00;;;;;;;;;;3572258;40;20420;-84
2021/05/28 10:54:00;;;;;;;17.23;12.90;;;;;;;;;;3583152;40;20458;-84
2021/05/28 10:56:28;;;;;;;13.90;10.90;;;;;;;;;;3555935;40;20646;-84
2021/05/28 10:58:56;;;;;;;17.30;13.40;;;;;;;;;;3553763;40;20424;-83
2021/05/28 11:01:41;;;;;;;19.73;12.40;;;;;;;;;;3554244;40;20922;-83
2021/05/28 11:04:08;;;;;;;17.23;10.80;;;;;;;;;;3556380;40;20420;-84
2021/05/28 11:06:54;;;;;;;19.93;14.50;;;;;;;;;;3558823;40;20434;-83
2021/05/28 11:09:35;;;;;;;15.00;11.60;;;;;;;;;;3551170;40;20426;-84
2021/05/28 11:12:02;;;;;;;17.57;14.07;;;;;;;;;;3560743;40;21254;-84
2021/05/28 11:14:29;;;;;;;15.13;11.87;;;;;;;;;;3560140;40;20520;-84
2021/05/28 11:16:55;;;;;;;18.90;15.03;;;;;;;;;;3559576;40;20467;-84
2021/05/28 11:19:29;;;;;;;24.83;16.70;;;;;;;;;;3562531;40;21305;-84
2021/05/28 11:21:58;;;;;;;17.87;14.13;;;;;;;;;;3592559;40;20408;-84
2021/05/28 11:24:43;;;;;;;19.60;15.50;;;;;;;;;;3584851;40;21357;-84
2021/05/28 11:27:35;;;;;;;17.00;13.90;;;;;;;;;;3587586;40;20408;-84
2021/05/28 11:30:04;;;;;;;11.43;9.50;;;;;;;;;;3586400;40;20463;-84
2021/05/28 11:32:32;;;;;;;7.60;6.30;;;;;;;;;;3585011;39;20421;-84
2021/05/28 11:35:11;;;;;;;8.00;7.20;;;;;;;;;;3624682;39;21156;-84
2021/05/28 11:37:38;;;;;;;9.10;7.60;;;;;;;;;;3624558;39;20420;-84
2021/05/28 11:40:15;;;;;;;11.47;7.27;;;;;;;;;;3635156;39;20422;-84
2021/05/28 11:42:41;;;;;;;8.90;6.90;;;;;;;;;;3634050;39;20420;-84
2021/05/28 11:45:09;;;;;;;5.90;5.40;;;;;;;;;;3621924;39;20412;-83
2021/05/28 11:47:37;;;;;;;6.50;6.00;;;;;;;;;;3617853;39;20414;-84
2021/05/28 11:50:06;;;;;;;7.73;6.57;;;;;;;;;;3617324;39;20396;-84
2021/05/28 11:52:32;;;;;;;6.80;6.10;;;;;;;;;;3624176;39;20398;-84
2021/05/28 11:55:12;;;;;;;7.03;6.40;;;;;;;;;;3626343;39;20493;-84
2021/05/28 11:57:55;;;;;;;6.60;6.10;;;;;;;;;;3622533;39;20393;-84
2021/05/28 12:00:22;;;;;;;8.43;5.20;;;;;;;;;;3619005;39;20404;-84
2021/05/28 12:02:48;;;;;;;5.50;5.10;;;;;;;;;;3615919;39;20445;-85
2021/05/28 12:05:17;;;;;;;5.90;4.90;;;;;;;;;;3619562;39;20422;-83
2021/05/28 12:07:44;;;;;;;5.20;4.80;;;;;;;;;;3609044;39;20421;-84
2021/05/28 12:10:13;;;;;;;5.10;4.57;;;;;;;;;;3617110;39;20442;-84
2021/05/28 12:12:57;;;;;;;6.33;5.67;;;;;;;;;;3605889;39;20411;-84
2021/05/28 12:15:49;;;;;;;5.13;4.73;;;;;;;;;;3608608;39;20976;-84
2021/05/28 12:18:27;;;;;;;5.80;5.30;;;;;;;;;;3605684;39;20452;-84
2021/05/28 12:21:25;;;;;;;8.03;7.23;;;;;;;;;;3590419;39;20462;-84
2021/05/28 12:23:52;;;;;;;11.97;6.90;;;;;;;;;;3593833;39;20604;-84
2021/05/28 12:26:48;;;;;;;7.23;6.63;;;;;;;;;;3611421;39;21483;-84
2021/05/28 12:29:14;;;;;;;6.67;6.07;;;;;;;;;;3566839;40;20426;-84
2021/05/28 12:32:09;;;;;;;6.00;5.50;;;;;;;;;;3568846;40;20417;-84
2021/05/28 12:34:35;;;;;;;8.33;7.53;;;;;;;;;;3533787;40;20401;-84
2021/05/28 12:37:02;;;;;;;7.50;6.90;;;;;;;;;;3538264;40;20425;-84
2021/05/28 12:39:59;;;;;;;7.90;7.20;;;;;;;;;;3534874;40;20519;-84
2021/05/28 12:42:53;;;;;;;8.30;7.60;;;;;;;;;;3523801;40;20446;-83
2021/05/28 12:45:23;;;;;;;5.27;4.87;;;;;;;;;;3508986;40;20415;-84
2021/05/28 12:47:52;;;;;;;6.37;5.77;;;;;;;;;;3522235;40;20431;-84
2021/05/28 12:50:36;;;;;;;11.60;7.47;;;;;;;;;;3516106;40;20462;-84
2021/05/28 12:53:22;;;;;;;5.57;5.07;;;;;;;;;;3513275;40;20463;-84
2021/05/28 12:55:53;;;;;;;6.40;5.80;;;;;;;;;;3506592;40;20501;-84
2021/05/28 12:58:25;;;;;;;6.17;5.17;;;;;;;;;;3497442;41;20483;-84
2021/05/28 13:01:09;;;;;;;5.57;4.80;;;;;;;;;;3499529;41;20496;-84
2021/05/28 13:03:40;;;;;;;6.10;5.60;;;;;;;;;;3495616;41;20433;-83
2021/05/28 13:06:25;;;;;;;6.57;5.97;;;;;;;;;;3526988;40;20437;-84
2021/05/28 13:08:56;;;;;;;5.87;5.37;;;;;;;;;;3527378;40;20416;-84
2021/05/28 13:11:23;;;;;;;4.13;3.83;;;;;;;;;;3553009;40;20411;-84
2021/05/28 13:13:51;;;;;;;4.40;4.00;;;;;;;;;;3550225;40;20388;-84
2021/05/28 13:16:28;;;;;;;4.33;3.90;;;;;;;;;;3558045;40;20451;-84
2021/05/28 13:18:55;;;;;;;3.50;3.30;;;;;;;;;;3570988;40;20418;-83
2021/05/28 13:21:25;;;;;;;4.10;3.73;;;;;;;;;;3609711;39;20416;-83
2021/05/28 13:23:55;;;;;;;4.40;3.73;;;;;;;;;;3624968;39;20418;-83
2021/05/28 13:26:23;;;;;;;4.17;3.40;;;;;;;;;;3622625;39;20426;-83
2021/05/28 13:28:49;;;;;;;3.93;3.63;;;;;;;;;;3621168;39;20445;-83
2021/05/28 13:31:17;;;;;;;3.77;3.53;;;;;;;;;;3608657;39;20457;-83
2021/05/28 13:33:44;;;;;;;3.50;3.27;;;;;;;;;;3608948;39;20445;-84
2021/05/28 13:36:10;;;;;;;4.30;4.00;;;;;;;;;;3620753;39;20747;-83
2021/05/28 13:38:39;;;;;;;3.00;2.80;;;;;;;;;;3619959;39;20511;-83
2021/05/28 13:41:54;;;;;;;3.77;3.13;;;;;;;;;;3608924;39;20414;-83
2021/05/28 13:44:01;;;;;;;2.87;2.67;;;;;;;;;;3626902;39;20432;-83
2021/05/28 13:46:31;;;;;;;2.47;2.37;;;;;;;;;;3615753;39;20426;-83
2021/05/28 13:48:57;;;;;;;3.47;2.50;;;;;;;;;;3621360;39;20409;-83
2021/05/28 13:51:23;;;;;;;2.40;2.20;;;;;;;;;;3620055;39;20421;-83
2021/05/28 13:53:49;;;;;;;1.90;1.80;;;;;;;;;;3615784;39;20394;-83
2021/05/28 13:56:16;;;;;;;2.63;2.43;;;;;;;;;;3624709;39;20413;-83
2021/05/28 13:58:43;;;;;;;2.30;2.10;;;;;;;;;;3607516;39;20409;-83
2021/05/28 14:01:10;;;;;;;3.17;2.57;;;;;;;;;;3623107;39;20413;-83
2021/05/28 14:03:37;;;;;;;3.33;2.87;;;;;;;;;;3611013;39;20771;-83
2021/05/28 14:06:03;;;;;;;2.20;2.10;;;;;;;;;;3611510;39;20418;-83
2021/05/28 14:08:29;;;;;;;2.50;2.40;;;;;;;;;;3623090;39;20418;-83
2021/05/28 14:10:55;;;;;;;2.67;2.00;;;;;;;;;;3621795;39;21110;-83
2021/05/28 14:13:21;;;;;;;2.53;2.30;;;;;;;;;;3617205;39;20424;-83
2021/05/28 14:15:47;;;;;;;4.77;2.60;;;;;;;;;;3616227;39;21212;-83
2021/05/28 14:18:13;;;;;;;2.20;2.10;;;;;;;;;;3614934;39;20418;-83
2021/05/28 14:20:40;;;;;;;2.20;2.00;;;;;;;;;;3605281;39;20702;-83
2021/05/28 14:23:09;;;;;;;3.10;1.97;;;;;;;;;;3621168;39;20437;-83
2021/05/28 14:25:35;;;;;;;3.47;2.33;;;;;;;;;;3617552;39;20425;-83
2021/05/28 14:28:03;;;;;;;2.77;2.57;;;;;;;;;;3621255;39;20430;-83
2021/05/28 14:30:30;;;;;;;2.70;2.50;;;;;;;;;;3605024;39;20422;-83
2021/05/28 14:32:58;;;;;;;2.50;2.40;;;;;;;;;;3601667;39;20399;-84
2021/05/28 14:35:24;;;;;;;2.67;2.57;;;;;;;;;;3614507;39;20456;-84
2021/05/28 14:37:50;;;;;;;3.13;2.93;;;;;;;;;;3623035;39;20398;-84
2021/05/28 14:40:20;;;;;;;5.53;2.03;;;;;;;;;;3608349;39;21010;-84
2021/05/28 14:42:46;;;;;;;1.97;1.87;;;;;;;;;;3616898;39;20481;-84
2021/05/28 14:45:13;;;;;;;3.77;1.97;;;;;;;;;;3611466;39;21097;-83
2021/05/28 14:47:39;;;;;;;2.20;2.10;;;;;;;;;;3619423;39;20802;-83